sensor_id;sensor_type;location;lat;lon;timestamp;temperature;humidity
3334;DHT22;1679;50.392;8.008;2022-09-13T00:00:52;14.00;99.90
3334;DHT22;1679;50.392;8.008;2022-09-13T00:03:18;14.00;99.90
3334;DHT22;1679;50.392;8.008;2022-09-13T00:05:44;13.90;99.90
3334;DHT22;1679;50.392;8.008;2022-09-13T00:08:10;13.90;99.90
3334;DHT22;1679;50.392;8.008;2022-09-13T00:10:37;13.90;99.90
3334;DHT22;1679;50.392;8.008;2022-09-13T00:13:04;13.80;99.90
3334;DHT22;1679;50.392;8.008;2022-09-13T00:15:30;13.80;99.90
3334;DHT22;1679;50.392;8.008;2022-09-13T00:17:55;13.70;99.90
3334;DHT22;1679;50.392;8.008;2022-09-13T00:20:21;13.70;99.90
3334;DHT22;1679;50.392;8.008;2022-09-13T00:22:47;13.70;99.90
3334;DHT22;1679;50.392;8.008;2022-09-13T00:25:13;13.70;99.90
3334;DHT22;1679;50.392;8.008;2022-09-13T00:27:38;13.60;99.90
3334;DHT22;1679;50.392;8.008;2022-09-13T00:30:05;13.60;99.90
3334;DHT22;1679;50.392;8.008;2022-09-13T00:32:32;13.60;99.90
3334;DHT22;1679;50.392;8.008;2022-09-13T00:34:58;13.60;99.90
3334;DHT22;1679;50.392;8.008;2022-09-13T00:37:23;13.60;99.90
3334;DHT22;1679;50.392;8.008;2022-09-13T00:39:50;13.60;99.90
3334;DHT22;1679;50.392;8.008;2022-09-13T00:42:16;13.50;99.90
3334;DHT22;1679;50.392;8.008;2022-09-13T00:45:02;13.40;99.90
3334;DHT22;1679;50.392;8.008;2022-09-13T00:47:57;13.40;99.90
3334;DHT22;1679;50.392;8.008;2022-09-13T00:50:36;13.40;99.90
3334;DHT22;1679;50.392;8.008;2022-09-13T00:53:04;13.50;99.90
3334;DHT22;1679;50.392;8.008;2022-09-13T00:55:39;13.50;99.90
3334;DHT22;1679;50.392;8.008;2022-09-13T00:58:21;13.40;99.90
3334;DHT22;1679;50.392;8.008;2022-09-13T01:00:49;13.50;99.90
3334;DHT22;1679;50.392;8.008;2022-09-13T01:03:18;13.40;99.90
3334;DHT22;1679;50.392;8.008;2022-09-13T01:05:52;13.40;99.90
3334;DHT22;1679;50.392;8.008;2022-09-13T01:08:20;13.50;99.90
3334;DHT22;1679;50.392;8.008;2022-09-13T01:10:52;13.40;99.90
3334;DHT22;1679;50.392;8.008;2022-09-13T01:13:20;13.30;99.90
3334;DHT22;1679;50.392;8.008;2022-09-13T01:15:47;13.30;99.90
3334;DHT22;1679;50.392;8.008;2022-09-13T01:18:13;13.30;99.90
3334;DHT22;1679;50.392;8.008;2022-09-13T01:23:50;13.20;99.90
3334;DHT22;1679;50.392;8.008;2022-09-13T01:29:55;13.10;99.90
3334;DHT22;1679;50.392;8.008;2022-09-13T01:52:24;13.10;99.90
3334;DHT22;1679;50.392;8.008;2022-09-13T01:57:56;13.10;99.90
3334;DHT22;1679;50.392;8.008;2022-09-13T02:00:26;13.10;99.90
3334;DHT22;1679;50.392;8.008;2022-09-13T02:03:08;13.10;99.90
3334;DHT22;1679;50.392;8.008;2022-09-13T02:05:54;13.10;99.90
3334;DHT22;1679;50.392;8.008;2022-09-13T02:08:30;13.10;99.90
3334;DHT22;1679;50.392;8.008;2022-09-13T02:11:03;13.10;99.90
3334;DHT22;1679;50.392;8.008;2022-09-13T02:13:36;13.10;99.90
3334;DHT22;1679;50.392;8.008;2022-09-13T02:16:10;13.10;99.90
3334;DHT22;1679;50.392;8.008;2022-09-13T02:18:42;13.10;99.90
3334;DHT22;1679;50.392;8.008;2022-09-13T02:21:19;13.20;99.90
3334;DHT22;1679;50.392;8.008;2022-09-13T02:23:59;13.30;99.90
3334;DHT22;1679;50.392;8.008;2022-09-13T02:26:28;13.30;99.90
3334;DHT22;1679;50.392;8.008;2022-09-13T02:28:57;13.30;99.90
3334;DHT22;1679;50.392;8.008;2022-09-13T02:31:51;13.40;99.90
3334;DHT22;1679;50.392;8.008;2022-09-13T02:34:23;13.40;99.90
3334;DHT22;1679;50.392;8.008;2022-09-13T02:36:52;13.40;99.90
3334;DHT22;1679;50.392;8.008;2022-09-13T02:39:22;13.40;99.90
3334;DHT22;1679;50.392;8.008;2022-09-13T02:42:09;13.40;99.90
3334;DHT22;1679;50.392;8.008;2022-09-13T02:44:40;13.50;99.90
3334;DHT22;1679;50.392;8.008;2022-09-13T02:50:06;13.50;99.90
3334;DHT22;1679;50.392;8.008;2022-09-13T03:00:58;13.60;99.90
3334;DHT22;1679;50.392;8.008;2022-09-13T03:03:24;13.50;99.90
3334;DHT22;1679;50.392;8.008;2022-09-13T03:05:49;13.40;99.90
3334;DHT22;1679;50.392;8.008;2022-09-13T03:08:16;13.40;99.90
3334;DHT22;1679;50.392;8.008;2022-09-13T03:22:32;13.30;99.90
3334;DHT22;1679;50.392;8.008;2022-09-13T03:25:24;13.20;99.90
3334;DHT22;1679;50.392;8.008;2022-09-13T03:30:21;13.10;99.90
3334;DHT22;1679;50.392;8.008;2022-09-13T03:33:03;13.10;99.90
3334;DHT22;1679;50.392;8.008;2022-09-13T03:38:27;13.10;99.90
3334;DHT22;1679;50.392;8.008;2022-09-13T03:41:09;13.10;99.90
3334;DHT22;1679;50.392;8.008;2022-09-13T03:43:50;13.10;99.90
3334;DHT22;1679;50.392;8.008;2022-09-13T03:46:34;13.10;99.90
3334;DHT22;1679;50.392;8.008;2022-09-13T03:49:06;13.10;99.90
3334;DHT22;1679;50.392;8.008;2022-09-13T03:51:33;13.10;99.90
3334;DHT22;1679;50.392;8.008;2022-09-13T03:54:03;13.10;99.90
3334;DHT22;1679;50.392;8.008;2022-09-13T03:56:31;13.10;99.90
3334;DHT22;1679;50.392;8.008;2022-09-13T03:58:57;13.10;99.90
3334;DHT22;1679;50.392;8.008;2022-09-13T04:01:23;13.20;99.90
3334;DHT22;1679;50.392;8.008;2022-09-13T04:03:49;13.10;99.90
3334;DHT22;1679;50.392;8.008;2022-09-13T04:06:16;13.20;99.90
3334;DHT22;1679;50.392;8.008;2022-09-13T04:08:42;13.10;99.90
3334;DHT22;1679;50.392;8.008;2022-09-13T04:11:09;13.10;99.90
3334;DHT22;1679;50.392;8.008;2022-09-13T04:13:35;13.10;99.90
3334;DHT22;1679;50.392;8.008;2022-09-13T04:16:03;13.10;99.90
3334;DHT22;1679;50.392;8.008;2022-09-13T04:18:29;13.10;99.90
3334;DHT22;1679;50.392;8.008;2022-09-13T04:20:56;13.10;99.90
3334;DHT22;1679;50.392;8.008;2022-09-13T04:23:23;13.10;99.90
3334;DHT22;1679;50.392;8.008;2022-09-13T04:25:49;13.10;99.90
3334;DHT22;1679;50.392;8.008;2022-09-13T04:28:16;13.20;99.90
3334;DHT22;1679;50.392;8.008;2022-09-13T04:30:46;13.10;99.90
3334;DHT22;1679;50.392;8.008;2022-09-13T04:33:12;13.10;99.90
3334;DHT22;1679;50.392;8.008;2022-09-13T04:35:38;13.10;99.90
3334;DHT22;1679;50.392;8.008;2022-09-13T04:38:04;13.20;99.90
3334;DHT22;1679;50.392;8.008;2022-09-13T04:40:31;13.20;99.90
3334;DHT22;1679;50.392;8.008;2022-09-13T04:42:56;13.20;99.90
3334;DHT22;1679;50.392;8.008;2022-09-13T04:45:22;13.30;99.90
3334;DHT22;1679;50.392;8.008;2022-09-13T04:47:52;13.30;99.90
3334;DHT22;1679;50.392;8.008;2022-09-13T04:50:18;13.30;99.90
3334;DHT22;1679;50.392;8.008;2022-09-13T04:52:45;13.30;99.90
3334;DHT22;1679;50.392;8.008;2022-09-13T04:55:10;13.30;99.90
3334;DHT22;1679;50.392;8.008;2022-09-13T04:57:36;13.30;99.90
3334;DHT22;1679;50.392;8.008;2022-09-13T05:00:03;13.40;99.90
3334;DHT22;1679;50.392;8.008;2022-09-13T05:02:29;13.40;99.90
3334;DHT22;1679;50.392;8.008;2022-09-13T05:04:55;13.40;99.90
3334;DHT22;1679;50.392;8.008;2022-09-13T05:07:20;13.40;99.90
3334;DHT22;1679;50.392;8.008;2022-09-13T05:09:46;13.40;99.90
3334;DHT22;1679;50.392;8.008;2022-09-13T05:12:11;13.40;99.90
3334;DHT22;1679;50.392;8.008;2022-09-13T05:14:38;13.40;99.90
3334;DHT22;1679;50.392;8.008;2022-09-13T05:17:04;13.40;99.90
3334;DHT22;1679;50.392;8.008;2022-09-13T05:19:30;13.50;99.90
3334;DHT22;1679;50.392;8.008;2022-09-13T05:21:55;13.50;99.90
3334;DHT22;1679;50.392;8.008;2022-09-13T05:24:21;13.60;99.90
3334;DHT22;1679;50.392;8.008;2022-09-13T05:26:47;13.60;99.90
3334;DHT22;1679;50.392;8.008;2022-09-13T05:29:12;13.70;99.90
3334;DHT22;1679;50.392;8.008;2022-09-13T05:31:41;13.70;99.90
3334;DHT22;1679;50.392;8.008;2022-09-13T05:34:10;13.60;99.90
3334;DHT22;1679;50.392;8.008;2022-09-13T05:36:37;13.60;99.90
3334;DHT22;1679;50.392;8.008;2022-09-13T05:39:03;13.60;99.90
3334;DHT22;1679;50.392;8.008;2022-09-13T05:41:29;13.60;99.90
3334;DHT22;1679;50.392;8.008;2022-09-13T05:43:55;13.60;99.90
3334;DHT22;1679;50.392;8.008;2022-09-13T05:46:21;13.60;99.90
3334;DHT22;1679;50.392;8.008;2022-09-13T05:48:48;13.70;99.90
3334;DHT22;1679;50.392;8.008;2022-09-13T05:51:21;13.60;99.90
3334;DHT22;1679;50.392;8.008;2022-09-13T05:53:51;13.60;99.90
3334;DHT22;1679;50.392;8.008;2022-09-13T05:56:25;13.60;99.90
3334;DHT22;1679;50.392;8.008;2022-09-13T05:58:52;13.70;99.90
3334;DHT22;1679;50.392;8.008;2022-09-13T06:01:20;13.70;99.90
3334;DHT22;1679;50.392;8.008;2022-09-13T06:03:47;13.80;99.90
3334;DHT22;1679;50.392;8.008;2022-09-13T06:06:13;13.90;99.90
3334;DHT22;1679;50.392;8.008;2022-09-13T06:08:39;13.90;99.90
3334;DHT22;1679;50.392;8.008;2022-09-13T06:11:07;14.00;99.90
3334;DHT22;1679;50.392;8.008;2022-09-13T06:13:35;14.10;99.90
3334;DHT22;1679;50.392;8.008;2022-09-13T06:16:02;14.10;99.90
3334;DHT22;1679;50.392;8.008;2022-09-13T06:18:28;14.20;99.90
3334;DHT22;1679;50.392;8.008;2022-09-13T06:21:08;14.20;99.90
3334;DHT22;1679;50.392;8.008;2022-09-13T06:23:34;14.20;99.90
3334;DHT22;1679;50.392;8.008;2022-09-13T06:26:07;14.30;99.90
3334;DHT22;1679;50.392;8.008;2022-09-13T06:28:34;14.30;99.90
3334;DHT22;1679;50.392;8.008;2022-09-13T06:33:34;14.50;99.90
3334;DHT22;1679;50.392;8.008;2022-09-13T06:36:04;14.50;99.90
3334;DHT22;1679;50.392;8.008;2022-09-13T06:38:31;14.60;99.90
3334;DHT22;1679;50.392;8.008;2022-09-13T06:41:08;14.60;99.90
3334;DHT22;1679;50.392;8.008;2022-09-13T06:43:34;14.70;99.90
3334;DHT22;1679;50.392;8.008;2022-09-13T06:46:10;14.80;99.90
3334;DHT22;1679;50.392;8.008;2022-09-13T06:48:38;14.90;99.90
3334;DHT22;1679;50.392;8.008;2022-09-13T06:51:12;15.00;99.90
3334;DHT22;1679;50.392;8.008;2022-09-13T06:53:39;15.10;99.90
3334;DHT22;1679;50.392;8.008;2022-09-13T06:56:09;15.10;99.90
3334;DHT22;1679;50.392;8.008;2022-09-13T06:58:36;15.10;99.90
3334;DHT22;1679;50.392;8.008;2022-09-13T07:03:35;15.10;99.90
3334;DHT22;1679;50.392;8.008;2022-09-13T07:06:06;15.00;99.90
3334;DHT22;1679;50.392;8.008;2022-09-13T07:08:32;15.00;99.90
3334;DHT22;1679;50.392;8.008;2022-09-13T07:10:58;15.10;99.90
3334;DHT22;1679;50.392;8.008;2022-09-13T07:13:24;15.10;99.90
3334;DHT22;1679;50.392;8.008;2022-09-13T07:15:51;15.20;99.90
3334;DHT22;1679;50.392;8.008;2022-09-13T07:18:16;15.20;99.90
3334;DHT22;1679;50.392;8.008;2022-09-13T07:20:41;15.20;99.90
3334;DHT22;1679;50.392;8.008;2022-09-13T07:23:07;15.20;99.90
3334;DHT22;1679;50.392;8.008;2022-09-13T07:25:33;15.30;99.90
3334;DHT22;1679;50.392;8.008;2022-09-13T07:27:59;15.30;99.90
3334;DHT22;1679;50.392;8.008;2022-09-13T07:30:25;15.40;99.90
3334;DHT22;1679;50.392;8.008;2022-09-13T07:32:51;15.50;99.90
3334;DHT22;1679;50.392;8.008;2022-09-13T07:35:16;15.60;99.90
3334;DHT22;1679;50.392;8.008;2022-09-13T07:37:42;15.50;99.90
3334;DHT22;1679;50.392;8.008;2022-09-13T07:40:10;15.50;99.90
3334;DHT22;1679;50.392;8.008;2022-09-13T07:42:35;15.60;99.90
3334;DHT22;1679;50.392;8.008;2022-09-13T07:45:01;15.60;99.90
3334;DHT22;1679;50.392;8.008;2022-09-13T07:47:27;15.70;99.90
3334;DHT22;1679;50.392;8.008;2022-09-13T07:49:53;15.80;99.90
3334;DHT22;1679;50.392;8.008;2022-09-13T07:52:18;15.90;99.90
3334;DHT22;1679;50.392;8.008;2022-09-13T07:54:44;16.00;99.90
3334;DHT22;1679;50.392;8.008;2022-09-13T07:57:09;16.00;99.90
3334;DHT22;1679;50.392;8.008;2022-09-13T07:59:35;16.10;99.90
3334;DHT22;1679;50.392;8.008;2022-09-13T08:02:00;16.40;99.90
3334;DHT22;1679;50.392;8.008;2022-09-13T08:04:26;16.60;99.90
3334;DHT22;1679;50.392;8.008;2022-09-13T08:06:51;16.80;99.90
3334;DHT22;1679;50.392;8.008;2022-09-13T08:09:17;16.60;99.90
3334;DHT22;1679;50.392;8.008;2022-09-13T08:11:48;16.70;99.90
3334;DHT22;1679;50.392;8.008;2022-09-13T08:14:17;16.70;99.90
3334;DHT22;1679;50.392;8.008;2022-09-13T08:16:44;16.70;99.90
3334;DHT22;1679;50.392;8.008;2022-09-13T08:19:13;16.70;99.90
3334;DHT22;1679;50.392;8.008;2022-09-13T08:21:40;16.70;99.90
3334;DHT22;1679;50.392;8.008;2022-09-13T08:24:11;16.90;99.90
3334;DHT22;1679;50.392;8.008;2022-09-13T08:26:37;17.00;99.90
3334;DHT22;1679;50.392;8.008;2022-09-13T08:29:05;17.10;99.90
3334;DHT22;1679;50.392;8.008;2022-09-13T08:31:30;17.10;99.90
3334;DHT22;1679;50.392;8.008;2022-09-13T08:33:56;17.10;99.90
3334;DHT22;1679;50.392;8.008;2022-09-13T08:36:24;17.30;99.90
3334;DHT22;1679;50.392;8.008;2022-09-13T08:38:52;17.20;99.90
3334;DHT22;1679;50.392;8.008;2022-09-13T08:42:00;17.20;99.90
3334;DHT22;1679;50.392;8.008;2022-09-13T08:47:27;17.20;99.90
3334;DHT22;1679;50.392;8.008;2022-09-13T08:50:14;17.20;99.90
3334;DHT22;1679;50.392;8.008;2022-09-13T08:53:03;17.30;99.90
3334;DHT22;1679;50.392;8.008;2022-09-13T09:04:11;17.40;99.90
3334;DHT22;1679;50.392;8.008;2022-09-13T09:06:40;17.40;99.90
3334;DHT22;1679;50.392;8.008;2022-09-13T09:09:12;17.40;99.90
3334;DHT22;1679;50.392;8.008;2022-09-13T09:11:42;17.50;99.90
3334;DHT22;1679;50.392;8.008;2022-09-13T09:17:17;17.60;99.90
3334;DHT22;1679;50.392;8.008;2022-09-13T09:19:49;17.70;99.90
3334;DHT22;1679;50.392;8.008;2022-09-13T09:22:20;17.80;99.90
3334;DHT22;1679;50.392;8.008;2022-09-13T09:24:54;17.80;99.90
3334;DHT22;1679;50.392;8.008;2022-09-13T09:27:21;17.80;99.90
3334;DHT22;1679;50.392;8.008;2022-09-13T09:29:49;17.90;99.90
3334;DHT22;1679;50.392;8.008;2022-09-13T09:38:25;18.20;99.90
3334;DHT22;1679;50.392;8.008;2022-09-13T09:40:55;18.20;99.90
3334;DHT22;1679;50.392;8.008;2022-09-13T09:43:32;18.30;99.90
3334;DHT22;1679;50.392;8.008;2022-09-13T09:46:02;18.50;99.90
3334;DHT22;1679;50.392;8.008;2022-09-13T09:48:45;18.80;99.90
3334;DHT22;1679;50.392;8.008;2022-09-13T09:51:14;19.10;99.90
3334;DHT22;1679;50.392;8.008;2022-09-13T09:53:44;19.30;99.90
3334;DHT22;1679;50.392;8.008;2022-09-13T09:58:44;19.50;99.90
3334;DHT22;1679;50.392;8.008;2022-09-13T10:01:29;19.50;99.90
3334;DHT22;1679;50.392;8.008;2022-09-13T10:06:40;19.80;99.90
3334;DHT22;1679;50.392;8.008;2022-09-13T10:09:17;19.90;99.90
3334;DHT22;1679;50.392;8.008;2022-09-13T10:11:51;20.10;99.90
3334;DHT22;1679;50.392;8.008;2022-09-13T10:19:37;20.60;99.90
3334;DHT22;1679;50.392;8.008;2022-09-13T10:22:11;20.90;99.90
3334;DHT22;1679;50.392;8.008;2022-09-13T10:24:37;21.10;99.90
3334;DHT22;1679;50.392;8.008;2022-09-13T10:27:02;21.30;99.90
3334;DHT22;1679;50.392;8.008;2022-09-13T10:29:30;21.40;99.90
3334;DHT22;1679;50.392;8.008;2022-09-13T10:31:56;21.60;99.90
3334;DHT22;1679;50.392;8.008;2022-09-13T10:34:30;21.60;99.90
3334;DHT22;1679;50.392;8.008;2022-09-13T10:37:02;21.70;99.90
3334;DHT22;1679;50.392;8.008;2022-09-13T10:39:31;21.90;99.90
3334;DHT22;1679;50.392;8.008;2022-09-13T10:42:01;22.20;99.90
3334;DHT22;1679;50.392;8.008;2022-09-13T10:44:41;22.30;99.90
3334;DHT22;1679;50.392;8.008;2022-09-13T10:48:01;22.20;99.90
3334;DHT22;1679;50.392;8.008;2022-09-13T10:52:46;22.20;99.90
3334;DHT22;1679;50.392;8.008;2022-09-13T10:55:36;22.20;99.90
3334;DHT22;1679;50.392;8.008;2022-09-13T11:00:43;22.10;99.90
3334;DHT22;1679;50.392;8.008;2022-09-13T11:03:39;22.10;99.90
3334;DHT22;1679;50.392;8.008;2022-09-13T11:06:17;22.20;99.90
3334;DHT22;1679;50.392;8.008;2022-09-13T11:09:09;22.30;99.90
3334;DHT22;1679;50.392;8.008;2022-09-13T11:11:58;22.30;99.90
3334;DHT22;1679;50.392;8.008;2022-09-13T11:22:24;22.80;99.90
3334;DHT22;1679;50.392;8.008;2022-09-13T11:30:22;22.90;99.90
3334;DHT22;1679;50.392;8.008;2022-09-13T11:36:03;23.10;99.90
3334;DHT22;1679;50.392;8.008;2022-09-13T11:41:54;23.30;99.90
3334;DHT22;1679;50.392;8.008;2022-09-13T11:55:43;23.30;99.90
3334;DHT22;1679;50.392;8.008;2022-09-13T11:58:27;23.50;99.90
3334;DHT22;1679;50.392;8.008;2022-09-13T12:00:59;23.50;99.90
3334;DHT22;1679;50.392;8.008;2022-09-13T12:03:39;23.50;99.90
3334;DHT22;1679;50.392;8.008;2022-09-13T12:06:13;23.50;99.90
3334;DHT22;1679;50.392;8.008;2022-09-13T12:08:44;23.50;99.90
3334;DHT22;1679;50.392;8.008;2022-09-13T12:11:16;23.50;99.90
3334;DHT22;1679;50.392;8.008;2022-09-13T12:13:50;23.50;99.90
3334;DHT22;1679;50.392;8.008;2022-09-13T12:16:28;23.50;99.90
3334;DHT22;1679;50.392;8.008;2022-09-13T12:18:57;23.50;99.90
3334;DHT22;1679;50.392;8.008;2022-09-13T12:21:31;23.50;99.90
3334;DHT22;1679;50.392;8.008;2022-09-13T12:26:35;23.40;99.90
3334;DHT22;1679;50.392;8.008;2022-09-13T12:29:17;23.30;99.90
3334;DHT22;1679;50.392;8.008;2022-09-13T12:31:44;23.20;99.90
3334;DHT22;1679;50.392;8.008;2022-09-13T12:34:23;23.00;99.90
3334;DHT22;1679;50.392;8.008;2022-09-13T12:37:17;23.10;99.90
3334;DHT22;1679;50.392;8.008;2022-09-13T12:45:41;23.10;99.90
3334;DHT22;1679;50.392;8.008;2022-09-13T12:48:37;23.20;99.90
3334;DHT22;1679;50.392;8.008;2022-09-13T12:59:50;23.50;99.90
3334;DHT22;1679;50.392;8.008;2022-09-13T13:02:34;23.60;99.90
3334;DHT22;1679;50.392;8.008;2022-09-13T13:07:57;24.10;99.90
3334;DHT22;1679;50.392;8.008;2022-09-13T13:10:33;24.00;99.90
3334;DHT22;1679;50.392;8.008;2022-09-13T13:13:22;24.10;99.90
3334;DHT22;1679;50.392;8.008;2022-09-13T13:18:29;24.10;99.90
3334;DHT22;1679;50.392;8.008;2022-09-13T13:23:34;23.90;99.90
3334;DHT22;1679;50.392;8.008;2022-09-13T13:26:11;23.80;99.90
3334;DHT22;1679;50.392;8.008;2022-09-13T13:41:58;24.10;99.90
3334;DHT22;1679;50.392;8.008;2022-09-13T13:57:28;23.60;99.90
3334;DHT22;1679;50.392;8.008;2022-09-13T14:00:29;23.50;99.90
3334;DHT22;1679;50.392;8.008;2022-09-13T14:03:14;23.50;99.90
3334;DHT22;1679;50.392;8.008;2022-09-13T14:11:07;23.30;99.90
3334;DHT22;1679;50.392;8.008;2022-09-13T14:13:48;23.20;99.90
3334;DHT22;1679;50.392;8.008;2022-09-13T14:16:37;23.10;99.90
3334;DHT22;1679;50.392;8.008;2022-09-13T14:19:22;23.00;99.90
3334;DHT22;1679;50.392;8.008;2022-09-13T14:22:18;22.80;99.90
3334;DHT22;1679;50.392;8.008;2022-09-13T14:24:45;22.80;99.90
3334;DHT22;1679;50.392;8.008;2022-09-13T14:27:19;22.80;99.90
3334;DHT22;1679;50.392;8.008;2022-09-13T14:29:48;22.90;99.90
3334;DHT22;1679;50.392;8.008;2022-09-13T14:32:17;23.00;99.90
3334;DHT22;1679;50.392;8.008;2022-09-13T14:35:02;23.00;99.90
3334;DHT22;1679;50.392;8.008;2022-09-13T14:37:31;23.10;99.90
3334;DHT22;1679;50.392;8.008;2022-09-13T14:40:10;23.20;99.90
3334;DHT22;1679;50.392;8.008;2022-09-13T14:42:42;23.30;99.90
3334;DHT22;1679;50.392;8.008;2022-09-13T14:45:17;23.30;99.90
3334;DHT22;1679;50.392;8.008;2022-09-13T14:48:02;23.30;99.90
3334;DHT22;1679;50.392;8.008;2022-09-13T14:50:33;23.20;99.90
3334;DHT22;1679;50.392;8.008;2022-09-13T14:53:15;23.00;99.90
3334;DHT22;1679;50.392;8.008;2022-09-13T14:56:04;23.00;99.90
3334;DHT22;1679;50.392;8.008;2022-09-13T14:58:44;22.90;99.90
3334;DHT22;1679;50.392;8.008;2022-09-13T15:01:13;22.80;99.90
3334;DHT22;1679;50.392;8.008;2022-09-13T15:03:42;22.80;99.90
3334;DHT22;1679;50.392;8.008;2022-09-13T15:06:26;22.70;99.90
3334;DHT22;1679;50.392;8.008;2022-09-13T15:09:24;22.60;99.90
3334;DHT22;1679;50.392;8.008;2022-09-13T15:11:54;22.60;99.90
3334;DHT22;1679;50.392;8.008;2022-09-13T15:14:34;22.50;99.90
3334;DHT22;1679;50.392;8.008;2022-09-13T15:17:13;22.40;99.90
3334;DHT22;1679;50.392;8.008;2022-09-13T15:19:49;22.40;99.90
3334;DHT22;1679;50.392;8.008;2022-09-13T15:22:26;22.40;99.90
3334;DHT22;1679;50.392;8.008;2022-09-13T15:24:57;22.30;99.90
3334;DHT22;1679;50.392;8.008;2022-09-13T15:27:52;22.20;99.90
3334;DHT22;1679;50.392;8.008;2022-09-13T15:30:23;22.10;99.90
3334;DHT22;1679;50.392;8.008;2022-09-13T15:33:13;22.10;99.90
3334;DHT22;1679;50.392;8.008;2022-09-13T15:35:42;22.10;99.90
3334;DHT22;1679;50.392;8.008;2022-09-13T15:38:29;22.10;99.90
3334;DHT22;1679;50.392;8.008;2022-09-13T15:41:17;22.10;99.90
3334;DHT22;1679;50.392;8.008;2022-09-13T15:43:43;22.20;99.90
3334;DHT22;1679;50.392;8.008;2022-09-13T15:46:16;22.20;99.90
3334;DHT22;1679;50.392;8.008;2022-09-13T15:49:00;22.10;99.90
3334;DHT22;1679;50.392;8.008;2022-09-13T15:51:27;22.10;99.90
3334;DHT22;1679;50.392;8.008;2022-09-13T15:53:54;22.10;99.90
3334;DHT22;1679;50.392;8.008;2022-09-13T15:56:31;22.10;99.90
3334;DHT22;1679;50.392;8.008;2022-09-13T15:58:59;22.00;99.90
3334;DHT22;1679;50.392;8.008;2022-09-13T16:01:24;22.00;99.90
3334;DHT22;1679;50.392;8.008;2022-09-13T16:03:52;21.90;99.90
3334;DHT22;1679;50.392;8.008;2022-09-13T16:06:17;21.80;99.90
3334;DHT22;1679;50.392;8.008;2022-09-13T16:08:43;21.70;99.90
3334;DHT22;1679;50.392;8.008;2022-09-13T16:11:08;21.70;99.90
3334;DHT22;1679;50.392;8.008;2022-09-13T16:13:34;21.60;99.90
3334;DHT22;1679;50.392;8.008;2022-09-13T16:16:00;21.60;99.90
3334;DHT22;1679;50.392;8.008;2022-09-13T16:18:29;21.60;99.90
3334;DHT22;1679;50.392;8.008;2022-09-13T16:20:55;21.50;99.90
3334;DHT22;1679;50.392;8.008;2022-09-13T16:23:21;21.50;99.90
3334;DHT22;1679;50.392;8.008;2022-09-13T16:25:55;21.50;99.90
3334;DHT22;1679;50.392;8.008;2022-09-13T16:28:21;21.40;99.90
3334;DHT22;1679;50.392;8.008;2022-09-13T16:30:47;21.40;99.90
3334;DHT22;1679;50.392;8.008;2022-09-13T16:33:13;21.30;99.90
3334;DHT22;1679;50.392;8.008;2022-09-13T16:35:39;21.30;99.90
3334;DHT22;1679;50.392;8.008;2022-09-13T16:38:04;21.20;99.90
3334;DHT22;1679;50.392;8.008;2022-09-13T16:40:30;21.10;99.90
3334;DHT22;1679;50.392;8.008;2022-09-13T16:42:55;21.10;99.90
3334;DHT22;1679;50.392;8.008;2022-09-13T16:45:22;21.10;99.90
3334;DHT22;1679;50.392;8.008;2022-09-13T16:47:48;21.10;99.90
3334;DHT22;1679;50.392;8.008;2022-09-13T16:50:13;21.00;99.90
3334;DHT22;1679;50.392;8.008;2022-09-13T16:52:39;21.00;99.90
3334;DHT22;1679;50.392;8.008;2022-09-13T16:55:07;20.90;99.90
3334;DHT22;1679;50.392;8.008;2022-09-13T16:57:33;20.90;99.90
3334;DHT22;1679;50.392;8.008;2022-09-13T16:59:58;20.80;99.90
3334;DHT22;1679;50.392;8.008;2022-09-13T17:02:25;20.80;99.90
3334;DHT22;1679;50.392;8.008;2022-09-13T17:04:51;20.70;99.90
3334;DHT22;1679;50.392;8.008;2022-09-13T17:07:16;20.70;99.90
3334;DHT22;1679;50.392;8.008;2022-09-13T17:09:42;20.70;99.90
3334;DHT22;1679;50.392;8.008;2022-09-13T17:12:09;20.50;99.90
3334;DHT22;1679;50.392;8.008;2022-09-13T17:14:36;20.40;99.90
3334;DHT22;1679;50.392;8.008;2022-09-13T17:17:03;20.40;99.90
3334;DHT22;1679;50.392;8.008;2022-09-13T17:19:31;20.30;99.90
3334;DHT22;1679;50.392;8.008;2022-09-13T17:22:01;20.30;99.90
3334;DHT22;1679;50.392;8.008;2022-09-13T17:24:29;20.20;99.90
3334;DHT22;1679;50.392;8.008;2022-09-13T17:26:56;20.20;99.90
3334;DHT22;1679;50.392;8.008;2022-09-13T17:29:22;20.10;99.90
3334;DHT22;1679;50.392;8.008;2022-09-13T17:31:50;20.10;99.90
3334;DHT22;1679;50.392;8.008;2022-09-13T17:34:16;20.10;99.90
3334;DHT22;1679;50.392;8.008;2022-09-13T17:36:42;20.10;99.90
3334;DHT22;1679;50.392;8.008;2022-09-13T17:39:10;20.10;99.90
3334;DHT22;1679;50.392;8.008;2022-09-13T17:41:37;20.00;99.90
3334;DHT22;1679;50.392;8.008;2022-09-13T17:44:03;20.00;99.90
3334;DHT22;1679;50.392;8.008;2022-09-13T17:46:29;19.90;99.90
3334;DHT22;1679;50.392;8.008;2022-09-13T17:48:56;19.80;99.90
3334;DHT22;1679;50.392;8.008;2022-09-13T17:51:25;19.70;99.90
3334;DHT22;1679;50.392;8.008;2022-09-13T17:53:54;19.70;99.90
3334;DHT22;1679;50.392;8.008;2022-09-13T17:56:26;19.70;99.90
3334;DHT22;1679;50.392;8.008;2022-09-13T17:58:54;19.70;99.90
3334;DHT22;1679;50.392;8.008;2022-09-13T18:01:19;19.70;99.90
3334;DHT22;1679;50.392;8.008;2022-09-13T18:03:45;19.80;99.90
3334;DHT22;1679;50.392;8.008;2022-09-13T18:06:11;19.80;99.90
3334;DHT22;1679;50.392;8.008;2022-09-13T18:08:39;19.80;99.90
3334;DHT22;1679;50.392;8.008;2022-09-13T18:11:08;19.70;99.90
3334;DHT22;1679;50.392;8.008;2022-09-13T18:13:34;19.60;99.90
3334;DHT22;1679;50.392;8.008;2022-09-13T18:16:03;19.50;99.90
3334;DHT22;1679;50.392;8.008;2022-09-13T18:18:32;19.50;99.90
3334;DHT22;1679;50.392;8.008;2022-09-13T18:20:58;19.40;99.90
3334;DHT22;1679;50.392;8.008;2022-09-13T18:23:24;19.40;99.90
3334;DHT22;1679;50.392;8.008;2022-09-13T18:26:02;19.40;99.90
3334;DHT22;1679;50.392;8.008;2022-09-13T18:28:29;19.40;99.90
3334;DHT22;1679;50.392;8.008;2022-09-13T18:30:56;19.40;99.90
3334;DHT22;1679;50.392;8.008;2022-09-13T18:33:22;19.40;99.90
3334;DHT22;1679;50.392;8.008;2022-09-13T18:35:56;19.30;99.90
3334;DHT22;1679;50.392;8.008;2022-09-13T18:38:23;19.20;99.90
3334;DHT22;1679;50.392;8.008;2022-09-13T18:41:00;19.20;99.90
3334;DHT22;1679;50.392;8.008;2022-09-13T18:43:26;19.20;99.90
3334;DHT22;1679;50.392;8.008;2022-09-13T18:45:56;19.10;99.90
3334;DHT22;1679;50.392;8.008;2022-09-13T18:48:22;19.10;99.90
3334;DHT22;1679;50.392;8.008;2022-09-13T18:50:47;19.10;99.90
3334;DHT22;1679;50.392;8.008;2022-09-13T18:53:13;19.10;99.90
3334;DHT22;1679;50.392;8.008;2022-09-13T18:55:39;19.20;99.90
3334;DHT22;1679;50.392;8.008;2022-09-13T18:58:05;19.20;99.90
3334;DHT22;1679;50.392;8.008;2022-09-13T19:00:31;19.20;99.90
3334;DHT22;1679;50.392;8.008;2022-09-13T19:02:57;19.30;99.90
3334;DHT22;1679;50.392;8.008;2022-09-13T19:05:26;19.30;99.90
3334;DHT22;1679;50.392;8.008;2022-09-13T19:07:55;19.30;99.90
3334;DHT22;1679;50.392;8.008;2022-09-13T19:10:21;19.20;99.90
3334;DHT22;1679;50.392;8.008;2022-09-13T19:12:46;19.20;99.90
3334;DHT22;1679;50.392;8.008;2022-09-13T19:15:12;19.20;99.90
3334;DHT22;1679;50.392;8.008;2022-09-13T19:17:40;19.10;99.90
3334;DHT22;1679;50.392;8.008;2022-09-13T19:20:06;19.00;99.90
3334;DHT22;1679;50.392;8.008;2022-09-13T19:22:31;19.00;99.90
3334;DHT22;1679;50.392;8.008;2022-09-13T19:24:57;19.00;99.90
3334;DHT22;1679;50.392;8.008;2022-09-13T19:27:22;19.00;99.90
3334;DHT22;1679;50.392;8.008;2022-09-13T19:29:48;18.90;99.90
3334;DHT22;1679;50.392;8.008;2022-09-13T19:32:13;19.00;99.90